Greendale, Massachusetts
Current Conditions -  °F | °C
As of 8:54 AM on Monday 24 Nov 2014 (Local Time) from KORH Reporting Station
Moderate Rain Moderate Rain  
Wind Chill: 58°   Ceiling: 600
Heat Index: 58°   Visibility: 2mi
Dew Point: 57°   Wind: 18mph
Humidity: 97%   Direction: 210°SSW
Pressure: 29.72"   Gusts: 30mph
Location:  42.3148°N, 71.7961°W
Report Text: KORH 241354Z 21016G26KT 2SM R11/6000VP6000FT RA BR BKN006 OVC010 14/14 A2972 RMK AO2 PK WND 20028/1317 WSHFT 1328 SLP067 P0018 T01440139 $
Loading
Personal Weather Stations






























Interactive Weather Map New forecast layout! Learn more

10-Day Weather Forecast

Advertisements
Track Severe Weather on mobile